Date,TemperatureHighF,TemperatureAvgF,TemperatureLowF,DewpointHighF,DewpointAvgF,DewpointLowF,HumidityHigh,HumidityAvg,HumidityLow,PressureMaxIn,PressureMinIn,WindSpeedMaxMPH,WindSpeedAvgMPH,GustSpeedMaxMPH,PrecipitationSumIn
2013-3-1,32.0,30.3,28.0,32.0,28.2,-99.9,100,95,88,30.08,29.95,7,4,15,0.00
2013-3-2,30.0,27.8,23.0,29.0,25.3,18.0,97,90,79,30.12,30.05,7,4,16,0.00
2013-3-3,36.0,25.9,18.0,24.0,20.1,17.0,96,80,53,30.10,30.02,5,1,10,0.00
2013-3-4,37.0,31.3,23.0,31.0,25.9,21.0,96,81,65,30.06,29.85,6,2,18,0.00
2013-3-5,37.0,33.6,29.0,35.0,31.8,29.0,100,94,82,29.87,29.67,5,2,19,0.00
2013-3-6,31.0,29.0,28.0,30.0,28.5,27.0,100,97,94,30.27,29.84,7,4,18,0.00
2013-3-7,36.0,30.9,27.0,32.0,28.5,25.0,98,90,75,30.36,30.24,3,0,7,0.00
2013-3-8,45.0,34.1,24.0,33.0,28.9,24.0,99,82,59,30.43,30.25,4,1,10,0.00
2013-3-9,54.0,42.9,34.0,43.0,35.3,29.0,86,75,60,30.25,29.82,4,2,12,0.00
2013-3-10,63.0,55.7,50.0,54.0,45.7,39.0,99,70,54,29.82,29.62,6,3,22,0.00
2013-3-11,53.0,40.2,33.0,52.0,39.4,31.0,100,97,93,29.85,29.57,9,5,23,0.00
2013-3-12,42.0,34.4,30.0,36.0,29.5,25.0,99,83,63,30.03,29.85,9,4,25,0.00
2013-3-13,34.0,28.4,25.0,26.0,23.0,21.0,89,80,63,30.30,30.03,8,4,16,0.00
2013-3-14,40.0,30.3,22.0,34.0,27.1,21.0,100,89,60,30.32,30.08,4,1,11,0.00
2013-3-15,55.0,40.1,26.0,46.0,36.7,26.0,100,89,69,30.08,29.63,4,1,9,0.00
2013-3-16,45.0,38.2,32.0,41.0,35.8,29.0,100,91,81,30.03,29.55,9,4,18,0.00
2013-3-17,40.0,34.6,31.0,32.0,28.8,26.0,89,79,67,30.11,29.85,7,4,19,0.00
2013-3-18,39.0,35.7,28.0,39.0,34.7,23.0,100,96,83,29.86,29.57,9,4,20,0.00
2013-3-19,42.0,31.1,23.0,25.0,21.0,15.0,84,67,43,30.09,29.85,9,4,27,0.00
2013-3-20,30.0,25.7,21.0,23.0,16.9,12.0,90,70,50,30.09,30.00,8,4,20,0.00
2013-3-21,36.0,24.8,15.0,19.0,15.6,12.0,97,70,45,30.03,29.94,7,2,15,0.00
2013-3-22,46.0,32.2,18.0,25.0,20.5,16.0,95,65,37,30.03,29.93,2,0,9,0.00
2013-3-23,49.0,39.6,33.0,29.0,26.6,23.0,74,60,43,30.04,29.87,7,3,17,0.00
2013-3-24,35.0,31.7,29.0,32.0,30.2,27.0,100,94,75,29.87,29.46,13,6,29,0.00
2013-3-25,34.0,30.8,28.0,33.0,30.3,28.0,100,98,88,30.02,29.55,10,6,20,0.00
2013-3-26,39.0,33.0,27.0,32.0,29.2,26.0,97,86,67,30.23,30.02,6,2,13,0.00
2013-3-27,43.0,34.9,28.0,32.0,28.4,24.0,96,79,54,30.31,30.22,5,1,10,0.00
2013-3-28,49.0,37.2,26.0,37.0,30.1,24.0,95,77,54,30.33,30.24,4,1,10,0.00
2013-3-29,57.0,43.3,32.0,37.0,33.6,30.0,95,72,43,30.26,30.16,4,0,8,0.00
2013-3-30,59.0,46.2,31.0,42.0,36.1,-99.9,98,73,45,30.18,29.84,3,1,11,0.00
2013-3-31,62.0,51.1,42.0,48.0,43.5,33.0,99,77,49,29.85,29.72,9,3,21,0.00